sensor_id;sensor_type;location;lat;lon;timestamp;temperature;humidity
20174;DHT22;10246;50.620;7.232;2023-07-02T00:01:18;17.70;12.60
20174;DHT22;10246;50.620;7.232;2023-07-02T00:03:45;17.70;12.80
20174;DHT22;10246;50.620;7.232;2023-07-02T00:06:11;17.80;12.70
20174;DHT22;10246;50.620;7.232;2023-07-02T00:08:38;17.80;11.80
20174;DHT22;10246;50.620;7.232;2023-07-02T00:11:06;17.80;12.10
20174;DHT22;10246;50.620;7.232;2023-07-02T00:13:32;17.70;12.60
20174;DHT22;10246;50.620;7.232;2023-07-02T00:16:00;17.60;12.90
20174;DHT22;10246;50.620;7.232;2023-07-02T00:18:28;17.60;12.50
20174;DHT22;10246;50.620;7.232;2023-07-02T00:20:59;17.60;13.60
20174;DHT22;10246;50.620;7.232;2023-07-02T00:23:26;17.60;13.80
20174;DHT22;10246;50.620;7.232;2023-07-02T00:25:53;17.60;14.00
20174;DHT22;10246;50.620;7.232;2023-07-02T00:28:20;17.60;13.60
20174;DHT22;10246;50.620;7.232;2023-07-02T00:30:46;17.60;14.00
20174;DHT22;10246;50.620;7.232;2023-07-02T00:33:15;17.60;14.40
20174;DHT22;10246;50.620;7.232;2023-07-02T00:35:41;17.50;14.00
20174;DHT22;10246;50.620;7.232;2023-07-02T00:38:08;17.50;14.00
20174;DHT22;10246;50.620;7.232;2023-07-02T00:40:35;17.50;14.10
20174;DHT22;10246;50.620;7.232;2023-07-02T00:43:02;17.50;13.80
20174;DHT22;10246;50.620;7.232;2023-07-02T00:45:29;17.50;14.30
20174;DHT22;10246;50.620;7.232;2023-07-02T00:47:56;17.50;14.30
20174;DHT22;10246;50.620;7.232;2023-07-02T00:50:25;17.40;14.40
20174;DHT22;10246;50.620;7.232;2023-07-02T00:52:53;17.30;14.10
20174;DHT22;10246;50.620;7.232;2023-07-02T00:55:20;17.30;13.50
20174;DHT22;10246;50.620;7.232;2023-07-02T00:57:47;17.30;13.60
20174;DHT22;10246;50.620;7.232;2023-07-02T01:00:15;17.20;13.50
20174;DHT22;10246;50.620;7.232;2023-07-02T01:02:41;17.30;13.70
20174;DHT22;10246;50.620;7.232;2023-07-02T01:05:13;17.20;13.00
20174;DHT22;10246;50.620;7.232;2023-07-02T01:07:42;17.20;13.00
20174;DHT22;10246;50.620;7.232;2023-07-02T01:10:09;17.10;13.20
20174;DHT22;10246;50.620;7.232;2023-07-02T01:12:36;17.00;13.30
20174;DHT22;10246;50.620;7.232;2023-07-02T01:15:05;16.90;13.70
20174;DHT22;10246;50.620;7.232;2023-07-02T01:17:34;16.80;14.00
20174;DHT22;10246;50.620;7.232;2023-07-02T01:20:08;16.80;14.10
20174;DHT22;10246;50.620;7.232;2023-07-02T01:22:36;16.80;14.30
20174;DHT22;10246;50.620;7.232;2023-07-02T01:25:03;16.80;14.60
20174;DHT22;10246;50.620;7.232;2023-07-02T01:27:31;16.80;14.30
20174;DHT22;10246;50.620;7.232;2023-07-02T01:30:00;16.80;14.20
20174;DHT22;10246;50.620;7.232;2023-07-02T01:32:27;16.80;13.90
20174;DHT22;10246;50.620;7.232;2023-07-02T01:34:54;16.80;13.30
20174;DHT22;10246;50.620;7.232;2023-07-02T01:37:22;16.80;13.80
20174;DHT22;10246;50.620;7.232;2023-07-02T01:39:49;16.80;13.90
20174;DHT22;10246;50.620;7.232;2023-07-02T01:42:18;16.80;13.70
20174;DHT22;10246;50.620;7.232;2023-07-02T01:44:45;16.80;13.80
20174;DHT22;10246;50.620;7.232;2023-07-02T01:47:13;16.80;12.40
20174;DHT22;10246;50.620;7.232;2023-07-02T01:49:41;16.80;12.10
20174;DHT22;10246;50.620;7.232;2023-07-02T01:52:08;16.80;11.80
20174;DHT22;10246;50.620;7.232;2023-07-02T01:54:36;16.80;12.00
20174;DHT22;10246;50.620;7.232;2023-07-02T01:57:03;16.70;11.80
20174;DHT22;10246;50.620;7.232;2023-07-02T01:59:30;16.80;10.30
20174;DHT22;10246;50.620;7.232;2023-07-02T02:01:57;16.80;8.10
20174;DHT22;10246;50.620;7.232;2023-07-02T02:04:24;16.80;10.50
20174;DHT22;10246;50.620;7.232;2023-07-02T02:06:50;16.80;9.60
20174;DHT22;10246;50.620;7.232;2023-07-02T02:09:18;16.70;9.50
20174;DHT22;10246;50.620;7.232;2023-07-02T02:11:49;16.70;7.90
20174;DHT22;10246;50.620;7.232;2023-07-02T02:14:15;16.70;8.50
20174;DHT22;10246;50.620;7.232;2023-07-02T02:16:43;16.70;5.40
20174;DHT22;10246;50.620;7.232;2023-07-02T02:19:11;16.70;6.40
20174;DHT22;10246;50.620;7.232;2023-07-02T02:21:38;16.70;8.00
20174;DHT22;10246;50.620;7.232;2023-07-02T02:24:05;16.70;8.00
20174;DHT22;10246;50.620;7.232;2023-07-02T02:26:32;16.70;8.20
20174;DHT22;10246;50.620;7.232;2023-07-02T02:29:00;16.60;7.20
20174;DHT22;10246;50.620;7.232;2023-07-02T02:31:27;16.60;8.30
20174;DHT22;10246;50.620;7.232;2023-07-02T02:33:55;16.60;6.00
20174;DHT22;10246;50.620;7.232;2023-07-02T02:36:21;16.60;7.10
20174;DHT22;10246;50.620;7.232;2023-07-02T02:38:48;16.60;7.00
20174;DHT22;10246;50.620;7.232;2023-07-02T02:41:15;16.60;7.90
20174;DHT22;10246;50.620;7.232;2023-07-02T02:43:42;16.70;8.50
20174;DHT22;10246;50.620;7.232;2023-07-02T02:46:10;16.60;7.50
20174;DHT22;10246;50.620;7.232;2023-07-02T02:48:37;16.60;5.80
20174;DHT22;10246;50.620;7.232;2023-07-02T02:51:04;16.60;5.50
20174;DHT22;10246;50.620;7.232;2023-07-02T02:53:31;16.60;6.70
20174;DHT22;10246;50.620;7.232;2023-07-02T02:55:57;16.60;7.80
20174;DHT22;10246;50.620;7.232;2023-07-02T02:58:24;16.50;6.40
20174;DHT22;10246;50.620;7.232;2023-07-02T03:00:53;16.60;7.60
20174;DHT22;10246;50.620;7.232;2023-07-02T03:03:21;16.60;9.40
20174;DHT22;10246;50.620;7.232;2023-07-02T03:05:49;16.50;9.20
20174;DHT22;10246;50.620;7.232;2023-07-02T03:08:16;16.50;8.60
20174;DHT22;10246;50.620;7.232;2023-07-02T03:10:44;16.50;9.10
20174;DHT22;10246;50.620;7.232;2023-07-02T03:13:11;16.50;8.70
20174;DHT22;10246;50.620;7.232;2023-07-02T03:15:37;16.50;9.70
20174;DHT22;10246;50.620;7.232;2023-07-02T03:18:04;16.40;6.60
20174;DHT22;10246;50.620;7.232;2023-07-02T03:20:33;16.50;8.20
20174;DHT22;10246;50.620;7.232;2023-07-02T03:23:01;16.40;8.60
20174;DHT22;10246;50.620;7.232;2023-07-02T03:25:28;16.40;9.90
20174;DHT22;10246;50.620;7.232;2023-07-02T03:27:54;16.40;7.30
20174;DHT22;10246;50.620;7.232;2023-07-02T03:30:21;16.40;8.70
20174;DHT22;10246;50.620;7.232;2023-07-02T03:32:48;16.40;8.50
20174;DHT22;10246;50.620;7.232;2023-07-02T03:35:15;16.40;9.30
20174;DHT22;10246;50.620;7.232;2023-07-02T03:37:43;16.40;9.20
20174;DHT22;10246;50.620;7.232;2023-07-02T03:40:11;16.40;9.10
20174;DHT22;10246;50.620;7.232;2023-07-02T03:42:38;16.40;7.00
20174;DHT22;10246;50.620;7.232;2023-07-02T03:45:05;16.40;8.00
20174;DHT22;10246;50.620;7.232;2023-07-02T03:47:32;16.30;8.90
20174;DHT22;10246;50.620;7.232;2023-07-02T03:49:59;16.30;9.50
20174;DHT22;10246;50.620;7.232;2023-07-02T03:52:25;16.30;10.20
20174;DHT22;10246;50.620;7.232;2023-07-02T03:54:53;16.30;10.00
20174;DHT22;10246;50.620;7.232;2023-07-02T03:57:20;16.30;10.20
20174;DHT22;10246;50.620;7.232;2023-07-02T03:59:47;16.30;10.10
20174;DHT22;10246;50.620;7.232;2023-07-02T04:02:13;16.30;10.60
20174;DHT22;10246;50.620;7.232;2023-07-02T04:04:40;16.20;11.00
20174;DHT22;10246;50.620;7.232;2023-07-02T04:07:07;16.20;10.80
20174;DHT22;10246;50.620;7.232;2023-07-02T04:09:34;16.20;10.60
20174;DHT22;10246;50.620;7.232;2023-07-02T04:12:02;16.20;10.70
20174;DHT22;10246;50.620;7.232;2023-07-02T04:14:29;16.20;10.60
20174;DHT22;10246;50.620;7.232;2023-07-02T04:16:57;16.10;10.90
20174;DHT22;10246;50.620;7.232;2023-07-02T04:19:23;16.10;11.10
20174;DHT22;10246;50.620;7.232;2023-07-02T04:21:50;16.20;11.70
20174;DHT22;10246;50.620;7.232;2023-07-02T04:24:17;16.10;10.90
20174;DHT22;10246;50.620;7.232;2023-07-02T04:26:43;16.20;11.00
20174;DHT22;10246;50.620;7.232;2023-07-02T04:29:11;16.10;9.90
20174;DHT22;10246;50.620;7.232;2023-07-02T04:31:38;16.10;9.80
20174;DHT22;10246;50.620;7.232;2023-07-02T04:34:05;16.20;10.00
20174;DHT22;10246;50.620;7.232;2023-07-02T04:36:32;16.20;10.50
20174;DHT22;10246;50.620;7.232;2023-07-02T04:38:58;16.20;9.60
20174;DHT22;10246;50.620;7.232;2023-07-02T04:41:26;16.30;10.30
20174;DHT22;10246;50.620;7.232;2023-07-02T04:43:53;16.30;10.50
20174;DHT22;10246;50.620;7.232;2023-07-02T04:46:21;16.40;10.30
20174;DHT22;10246;50.620;7.232;2023-07-02T04:48:47;16.40;10.40
20174;DHT22;10246;50.620;7.232;2023-07-02T04:51:14;16.40;11.00
20174;DHT22;10246;50.620;7.232;2023-07-02T04:53:41;16.40;11.30
20174;DHT22;10246;50.620;7.232;2023-07-02T04:56:07;16.50;9.70
20174;DHT22;10246;50.620;7.232;2023-07-02T04:58:34;16.50;7.80
20174;DHT22;10246;50.620;7.232;2023-07-02T05:01:01;16.60;8.50
20174;DHT22;10246;50.620;7.232;2023-07-02T05:03:29;16.60;7.00
20174;DHT22;10246;50.620;7.232;2023-07-02T05:05:56;16.60;6.20
20174;DHT22;10246;50.620;7.232;2023-07-02T05:08:22;16.60;6.40
20174;DHT22;10246;50.620;7.232;2023-07-02T05:10:49;16.70;6.20
20174;DHT22;10246;50.620;7.232;2023-07-02T05:13:16;16.70;8.10
20174;DHT22;10246;50.620;7.232;2023-07-02T05:15:42;16.70;8.60
20174;DHT22;10246;50.620;7.232;2023-07-02T05:18:10;16.80;7.30
20174;DHT22;10246;50.620;7.232;2023-07-02T05:20:38;16.80;7.60
20174;DHT22;10246;50.620;7.232;2023-07-02T05:23:04;16.90;7.70
20174;DHT22;10246;50.620;7.232;2023-07-02T05:25:31;16.90;8.40
20174;DHT22;10246;50.620;7.232;2023-07-02T05:27:59;17.00;8.60
20174;DHT22;10246;50.620;7.232;2023-07-02T05:30:25;17.00;9.60
20174;DHT22;10246;50.620;7.232;2023-07-02T05:32:52;17.10;9.20
20174;DHT22;10246;50.620;7.232;2023-07-02T05:35:20;17.00;9.70
20174;DHT22;10246;50.620;7.232;2023-07-02T05:37:48;17.10;9.90
20174;DHT22;10246;50.620;7.232;2023-07-02T05:40:15;17.20;10.40
20174;DHT22;10246;50.620;7.232;2023-07-02T05:42:42;17.20;10.30
20174;DHT22;10246;50.620;7.232;2023-07-02T05:45:10;17.30;10.00
20174;DHT22;10246;50.620;7.232;2023-07-02T05:47:36;17.30;9.60
20174;DHT22;10246;50.620;7.232;2023-07-02T05:50:04;17.40;7.60
20174;DHT22;10246;50.620;7.232;2023-07-02T05:52:31;17.50;7.00
20174;DHT22;10246;50.620;7.232;2023-07-02T05:54:59;17.50;5.90
20174;DHT22;10246;50.620;7.232;2023-07-02T05:57:26;17.50;5.70
20174;DHT22;10246;50.620;7.232;2023-07-02T05:59:53;17.60;6.90
20174;DHT22;10246;50.620;7.232;2023-07-02T06:02:19;17.70;3.90
20174;DHT22;10246;50.620;7.232;2023-07-02T06:04:46;17.70;3.90
20174;DHT22;10246;50.620;7.232;2023-07-02T06:07:16;17.80;4.50
20174;DHT22;10246;50.620;7.232;2023-07-02T06:09:42;17.90;1.00
20174;DHT22;10246;50.620;7.232;2023-07-02T06:12:11;17.90;1.30
20174;DHT22;10246;50.620;7.232;2023-07-02T06:14:37;18.10;1.30
20174;DHT22;10246;50.620;7.232;2023-07-02T06:17:04;18.10;1.00
20174;DHT22;10246;50.620;7.232;2023-07-02T06:19:33;18.20;1.00
20174;DHT22;10246;50.620;7.232;2023-07-02T06:21:59;18.30;1.00
20174;DHT22;10246;50.620;7.232;2023-07-02T06:24:26;18.40;1.00
20174;DHT22;10246;50.620;7.232;2023-07-02T06:26:53;18.50;1.00
20174;DHT22;10246;50.620;7.232;2023-07-02T06:29:22;18.60;1.00
20174;DHT22;10246;50.620;7.232;2023-07-02T06:31:48;18.60;1.00
20174;DHT22;10246;50.620;7.232;2023-07-02T06:34:15;18.60;1.00
20174;DHT22;10246;50.620;7.232;2023-07-02T06:36:42;18.60;1.00
20174;DHT22;10246;50.620;7.232;2023-07-02T06:39:09;18.70;1.00
20174;DHT22;10246;50.620;7.232;2023-07-02T06:41:36;18.80;1.00
20174;DHT22;10246;50.620;7.232;2023-07-02T06:44:03;18.90;1.00
20174;DHT22;10246;50.620;7.232;2023-07-02T06:46:32;19.00;1.00
20174;DHT22;10246;50.620;7.232;2023-07-02T06:48:59;19.00;1.00
20174;DHT22;10246;50.620;7.232;2023-07-02T06:51:25;19.10;1.00
20174;DHT22;10246;50.620;7.232;2023-07-02T06:53:54;19.30;1.00
20174;DHT22;10246;50.620;7.232;2023-07-02T06:56:21;19.50;1.00
20174;DHT22;10246;50.620;7.232;2023-07-02T06:58:48;19.60;1.00
20174;DHT22;10246;50.620;7.232;2023-07-02T07:01:14;19.60;1.00
20174;DHT22;10246;50.620;7.232;2023-07-02T07:03:42;19.70;1.00
20174;DHT22;10246;50.620;7.232;2023-07-02T07:06:09;19.90;1.00
20174;DHT22;10246;50.620;7.232;2023-07-02T07:08:37;19.90;1.00
20174;DHT22;10246;50.620;7.232;2023-07-02T07:11:04;20.00;1.00
20174;DHT22;10246;50.620;7.232;2023-07-02T07:13:31;20.10;1.00
20174;DHT22;10246;50.620;7.232;2023-07-02T07:15:58;20.20;1.00
20174;DHT22;10246;50.620;7.232;2023-07-02T07:18:24;20.40;1.00
20174;DHT22;10246;50.620;7.232;2023-07-02T07:20:52;20.30;1.00
20174;DHT22;10246;50.620;7.232;2023-07-02T07:23:19;20.30;1.00
20174;DHT22;10246;50.620;7.232;2023-07-02T07:25:46;20.20;1.00
20174;DHT22;10246;50.620;7.232;2023-07-02T07:28:13;20.30;1.00
20174;DHT22;10246;50.620;7.232;2023-07-02T07:30:41;20.40;1.00
20174;DHT22;10246;50.620;7.232;2023-07-02T07:33:08;20.50;1.00
20174;DHT22;10246;50.620;7.232;2023-07-02T07:35:34;20.60;1.00
20174;DHT22;10246;50.620;7.232;2023-07-02T07:38:02;20.60;1.00
20174;DHT22;10246;50.620;7.232;2023-07-02T07:40:29;20.60;1.00
20174;DHT22;10246;50.620;7.232;2023-07-02T07:42:56;20.50;1.00
20174;DHT22;10246;50.620;7.232;2023-07-02T07:45:23;20.50;1.00
20174;DHT22;10246;50.620;7.232;2023-07-02T07:47:50;20.60;1.00
20174;DHT22;10246;50.620;7.232;2023-07-02T07:50:16;20.60;1.00
20174;DHT22;10246;50.620;7.232;2023-07-02T07:52:43;20.60;1.00
20174;DHT22;10246;50.620;7.232;2023-07-02T07:55:11;20.50;1.00
20174;DHT22;10246;50.620;7.232;2023-07-02T07:57:39;20.60;1.00
20174;DHT22;10246;50.620;7.232;2023-07-02T08:00:06;20.60;1.00
20174;DHT22;10246;50.620;7.232;2023-07-02T08:02:34;20.70;1.00
20174;DHT22;10246;50.620;7.232;2023-07-02T08:05:01;20.80;1.00
20174;DHT22;10246;50.620;7.232;2023-07-02T08:07:28;20.80;1.00
20174;DHT22;10246;50.620;7.232;2023-07-02T08:09:55;20.80;1.00
20174;DHT22;10246;50.620;7.232;2023-07-02T08:12:23;20.80;1.00
20174;DHT22;10246;50.620;7.232;2023-07-02T08:14:52;20.90;1.00
20174;DHT22;10246;50.620;7.232;2023-07-02T08:17:19;20.80;1.00
20174;DHT22;10246;50.620;7.232;2023-07-02T08:19:45;20.80;1.00
20174;DHT22;10246;50.620;7.232;2023-07-02T08:22:12;20.80;1.00
20174;DHT22;10246;50.620;7.232;2023-07-02T08:24:39;20.80;1.00
20174;DHT22;10246;50.620;7.232;2023-07-02T08:27:06;20.90;1.00
20174;DHT22;10246;50.620;7.232;2023-07-02T08:29:36;20.90;1.00
20174;DHT22;10246;50.620;7.232;2023-07-02T08:32:03;21.00;1.00
20174;DHT22;10246;50.620;7.232;2023-07-02T08:34:30;21.10;1.00
20174;DHT22;10246;50.620;7.232;2023-07-02T08:36:57;21.30;1.00
20174;DHT22;10246;50.620;7.232;2023-07-02T08:39:24;21.40;1.00
20174;DHT22;10246;50.620;7.232;2023-07-02T08:41:50;21.50;1.00
20174;DHT22;10246;50.620;7.232;2023-07-02T08:44:20;21.50;1.00
20174;DHT22;10246;50.620;7.232;2023-07-02T08:46:49;21.40;1.00
20174;DHT22;10246;50.620;7.232;2023-07-02T08:49:18;21.40;1.00
20174;DHT22;10246;50.620;7.232;2023-07-02T08:51:46;21.30;1.00
20174;DHT22;10246;50.620;7.232;2023-07-02T08:54:13;21.40;1.00
20174;DHT22;10246;50.620;7.232;2023-07-02T08:56:40;21.40;1.00
20174;DHT22;10246;50.620;7.232;2023-07-02T08:59:10;21.40;1.00
20174;DHT22;10246;50.620;7.232;2023-07-02T09:01:49;21.40;1.00
20174;DHT22;10246;50.620;7.232;2023-07-02T09:04:17;21.40;1.00
20174;DHT22;10246;50.620;7.232;2023-07-02T09:06:44;21.60;1.00
20174;DHT22;10246;50.620;7.232;2023-07-02T09:09:11;21.60;1.00
20174;DHT22;10246;50.620;7.232;2023-07-02T09:11:46;21.80;1.00
20174;DHT22;10246;50.620;7.232;2023-07-02T09:14:24;21.70;1.00
20174;DHT22;10246;50.620;7.232;2023-07-02T09:17:07;21.70;1.00
20174;DHT22;10246;50.620;7.232;2023-07-02T09:19:36;21.50;1.00
20174;DHT22;10246;50.620;7.232;2023-07-02T09:22:03;21.50;1.00
20174;DHT22;10246;50.620;7.232;2023-07-02T09:24:31;21.50;1.00
20174;DHT22;10246;50.620;7.232;2023-07-02T09:26:59;21.60;1.00
20174;DHT22;10246;50.620;7.232;2023-07-02T09:29:29;21.60;1.00
20174;DHT22;10246;50.620;7.232;2023-07-02T09:31:58;21.70;1.00
20174;DHT22;10246;50.620;7.232;2023-07-02T09:34:30;21.60;1.00
20174;DHT22;10246;50.620;7.232;2023-07-02T09:36:57;21.60;1.00
20174;DHT22;10246;50.620;7.232;2023-07-02T09:39:28;21.60;1.00
20174;DHT22;10246;50.620;7.232;2023-07-02T09:41:56;21.70;1.00
20174;DHT22;10246;50.620;7.232;2023-07-02T09:44:27;21.70;1.00
20174;DHT22;10246;50.620;7.232;2023-07-02T09:46:58;21.70;1.00
20174;DHT22;10246;50.620;7.232;2023-07-02T09:49:28;21.90;1.00
20174;DHT22;10246;50.620;7.232;2023-07-02T09:51:59;22.00;1.00
20174;DHT22;10246;50.620;7.232;2023-07-02T09:54:26;22.10;1.00
20174;DHT22;10246;50.620;7.232;2023-07-02T09:56:53;22.00;1.00
20174;DHT22;10246;50.620;7.232;2023-07-02T09:59:19;22.00;1.00
20174;DHT22;10246;50.620;7.232;2023-07-02T10:01:47;22.00;1.00
20174;DHT22;10246;50.620;7.232;2023-07-02T10:04:14;22.00;1.00
20174;DHT22;10246;50.620;7.232;2023-07-02T10:06:50;22.00;1.00
20174;DHT22;10246;50.620;7.232;2023-07-02T10:09:17;22.10;1.00
20174;DHT22;10246;50.620;7.232;2023-07-02T10:11:44;22.20;1.00
20174;DHT22;10246;50.620;7.232;2023-07-02T10:14:11;22.20;1.00
20174;DHT22;10246;50.620;7.232;2023-07-02T10:16:51;22.20;1.00
20174;DHT22;10246;50.620;7.232;2023-07-02T10:19:21;22.30;1.00
20174;DHT22;10246;50.620;7.232;2023-07-02T10:22:01;22.30;1.00
20174;DHT22;10246;50.620;7.232;2023-07-02T10:24:28;22.40;1.00
20174;DHT22;10246;50.620;7.232;2023-07-02T10:26:56;22.30;1.00
20174;DHT22;10246;50.620;7.232;2023-07-02T10:29:23;22.20;1.00
20174;DHT22;10246;50.620;7.232;2023-07-02T10:31:51;22.20;1.00
20174;DHT22;10246;50.620;7.232;2023-07-02T10:34:28;22.30;1.00
20174;DHT22;10246;50.620;7.232;2023-07-02T10:36:59;22.50;1.00
20174;DHT22;10246;50.620;7.232;2023-07-02T10:39:27;22.50;1.00
20174;DHT22;10246;50.620;7.232;2023-07-02T10:42:04;22.50;1.00
20174;DHT22;10246;50.620;7.232;2023-07-02T10:44:31;22.40;1.00
20174;DHT22;10246;50.620;7.232;2023-07-02T10:46:57;22.30;1.00
20174;DHT22;10246;50.620;7.232;2023-07-02T10:49:30;22.00;1.00
20174;DHT22;10246;50.620;7.232;2023-07-02T10:51:59;22.00;1.00
20174;DHT22;10246;50.620;7.232;2023-07-02T10:54:26;21.90;1.00
20174;DHT22;10246;50.620;7.232;2023-07-02T10:56:57;21.90;1.00
20174;DHT22;10246;50.620;7.232;2023-07-02T10:59:24;22.00;1.00
20174;DHT22;10246;50.620;7.232;2023-07-02T11:01:51;22.10;1.00
20174;DHT22;10246;50.620;7.232;2023-07-02T11:04:18;22.40;1.00
20174;DHT22;10246;50.620;7.232;2023-07-02T11:06:44;22.60;1.00
20174;DHT22;10246;50.620;7.232;2023-07-02T11:09:18;22.70;1.00
20174;DHT22;10246;50.620;7.232;2023-07-02T11:11:51;22.60;1.00
20174;DHT22;10246;50.620;7.232;2023-07-02T11:14:27;22.60;1.00
20174;DHT22;10246;50.620;7.232;2023-07-02T11:16:54;22.70;1.00
20174;DHT22;10246;50.620;7.232;2023-07-02T11:19:21;22.70;1.00
20174;DHT22;10246;50.620;7.232;2023-07-02T11:21:51;22.80;1.00
20174;DHT22;10246;50.620;7.232;2023-07-02T11:24:28;23.10;1.00
20174;DHT22;10246;50.620;7.232;2023-07-02T11:26:55;23.30;1.00
20174;DHT22;10246;50.620;7.232;2023-07-02T11:29:23;23.30;1.00
20174;DHT22;10246;50.620;7.232;2023-07-02T11:31:49;23.30;1.00
20174;DHT22;10246;50.620;7.232;2023-07-02T11:34:17;23.20;1.00
20174;DHT22;10246;50.620;7.232;2023-07-02T11:36:45;23.00;1.00
20174;DHT22;10246;50.620;7.232;2023-07-02T11:39:12;22.90;1.00
20174;DHT22;10246;50.620;7.232;2023-07-02T11:41:41;22.80;1.00
20174;DHT22;10246;50.620;7.232;2023-07-02T11:44:11;22.70;1.00
20174;DHT22;10246;50.620;7.232;2023-07-02T11:46:38;22.60;1.00
20174;DHT22;10246;50.620;7.232;2023-07-02T11:49:05;22.60;1.00
20174;DHT22;10246;50.620;7.232;2023-07-02T11:51:34;22.60;1.00
20174;DHT22;10246;50.620;7.232;2023-07-02T11:54:01;22.60;1.00
20174;DHT22;10246;50.620;7.232;2023-07-02T11:56:28;22.50;1.00
20174;DHT22;10246;50.620;7.232;2023-07-02T11:58:57;22.60;1.00
20174;DHT22;10246;50.620;7.232;2023-07-02T12:01:24;22.70;1.00
20174;DHT22;10246;50.620;7.232;2023-07-02T12:03:51;22.70;1.00
20174;DHT22;10246;50.620;7.232;2023-07-02T12:06:17;22.90;1.00
20174;DHT22;10246;50.620;7.232;2023-07-02T12:08:44;23.30;1.00
20174;DHT22;10246;50.620;7.232;2023-07-02T12:11:11;23.70;1.00
20174;DHT22;10246;50.620;7.232;2023-07-02T12:13:37;23.90;1.00
20174;DHT22;10246;50.620;7.232;2023-07-02T12:16:06;23.80;1.00
20174;DHT22;10246;50.620;7.232;2023-07-02T12:18:32;23.80;1.00
20174;DHT22;10246;50.620;7.232;2023-07-02T12:20:59;23.90;1.00
20174;DHT22;10246;50.620;7.232;2023-07-02T12:23:26;24.10;1.00
20174;DHT22;10246;50.620;7.232;2023-07-02T12:25:52;24.10;1.00
20174;DHT22;10246;50.620;7.232;2023-07-02T12:28:19;23.80;1.00
20174;DHT22;10246;50.620;7.232;2023-07-02T12:30:46;23.70;1.00
20174;DHT22;10246;50.620;7.232;2023-07-02T12:33:19;23.60;1.00
20174;DHT22;10246;50.620;7.232;2023-07-02T12:35:45;23.60;1.00
20174;DHT22;10246;50.620;7.232;2023-07-02T12:38:13;23.60;1.00
20174;DHT22;10246;50.620;7.232;2023-07-02T12:40:40;23.70;1.00
20174;DHT22;10246;50.620;7.232;2023-07-02T12:43:07;23.70;1.00
20174;DHT22;10246;50.620;7.232;2023-07-02T12:45:34;23.80;1.00
20174;DHT22;10246;50.620;7.232;2023-07-02T12:48:00;23.70;1.00
20174;DHT22;10246;50.620;7.232;2023-07-02T12:50:28;23.70;1.00
20174;DHT22;10246;50.620;7.232;2023-07-02T12:52:55;23.80;1.00
20174;DHT22;10246;50.620;7.232;2023-07-02T12:55:26;24.00;1.00
20174;DHT22;10246;50.620;7.232;2023-07-02T12:57:53;24.00;1.00
20174;DHT22;10246;50.620;7.232;2023-07-02T13:00:20;24.10;1.00
20174;DHT22;10246;50.620;7.232;2023-07-02T13:02:47;24.20;1.00
20174;DHT22;10246;50.620;7.232;2023-07-02T13:05:15;24.20;1.00
20174;DHT22;10246;50.620;7.232;2023-07-02T13:07:45;24.10;1.00
20174;DHT22;10246;50.620;7.232;2023-07-02T13:10:13;24.00;1.00
20174;DHT22;10246;50.620;7.232;2023-07-02T13:12:40;24.10;1.00
20174;DHT22;10246;50.620;7.232;2023-07-02T13:15:08;24.10;1.00
20174;DHT22;10246;50.620;7.232;2023-07-02T13:17:35;24.10;1.00
20174;DHT22;10246;50.620;7.232;2023-07-02T13:20:01;24.30;1.00
20174;DHT22;10246;50.620;7.232;2023-07-02T13:22:29;24.60;1.00
20174;DHT22;10246;50.620;7.232;2023-07-02T13:25:00;24.70;1.00
20174;DHT22;10246;50.620;7.232;2023-07-02T13:27:27;24.90;1.00
20174;DHT22;10246;50.620;7.232;2023-07-02T13:29:54;25.20;1.00
20174;DHT22;10246;50.620;7.232;2023-07-02T13:32:20;25.50;1.00
20174;DHT22;10246;50.620;7.232;2023-07-02T13:34:47;25.70;1.00
20174;DHT22;10246;50.620;7.232;2023-07-02T13:37:16;25.60;1.00
20174;DHT22;10246;50.620;7.232;2023-07-02T13:39:47;25.00;1.00
20174;DHT22;10246;50.620;7.232;2023-07-02T13:42:15;24.80;1.00
20174;DHT22;10246;50.620;7.232;2023-07-02T13:44:43;24.90;1.00
20174;DHT22;10246;50.620;7.232;2023-07-02T13:47:10;25.00;1.00
20174;DHT22;10246;50.620;7.232;2023-07-02T13:49:37;25.00;1.00
20174;DHT22;10246;50.620;7.232;2023-07-02T13:52:04;25.00;1.00
20174;DHT22;10246;50.620;7.232;2023-07-02T13:54:31;24.90;1.00
20174;DHT22;10246;50.620;7.232;2023-07-02T13:56:58;25.00;1.00
20174;DHT22;10246;50.620;7.232;2023-07-02T13:59:26;25.10;1.00
20174;DHT22;10246;50.620;7.232;2023-07-02T14:01:53;25.00;1.00
20174;DHT22;10246;50.620;7.232;2023-07-02T14:04:20;25.10;1.00
20174;DHT22;10246;50.620;7.232;2023-07-02T14:06:46;25.00;1.00
20174;DHT22;10246;50.620;7.232;2023-07-02T14:09:13;25.20;1.00
20174;DHT22;10246;50.620;7.232;2023-07-02T14:11:43;25.40;1.00
20174;DHT22;10246;50.620;7.232;2023-07-02T14:14:11;25.60;1.00
20174;DHT22;10246;50.620;7.232;2023-07-02T14:16:39;25.50;1.00
20174;DHT22;10246;50.620;7.232;2023-07-02T14:19:06;25.50;1.00
20174;DHT22;10246;50.620;7.232;2023-07-02T14:21:33;25.60;1.00
20174;DHT22;10246;50.620;7.232;2023-07-02T14:23:59;25.40;1.00
20174;DHT22;10246;50.620;7.232;2023-07-02T14:26:26;25.20;1.00
20174;DHT22;10246;50.620;7.232;2023-07-02T14:28:53;25.20;1.00
20174;DHT22;10246;50.620;7.232;2023-07-02T14:31:20;25.20;1.00
20174;DHT22;10246;50.620;7.232;2023-07-02T14:33:48;25.50;1.00
20174;DHT22;10246;50.620;7.232;2023-07-02T14:36:19;25.70;1.00
20174;DHT22;10246;50.620;7.232;2023-07-02T14:38:46;25.80;1.00
20174;DHT22;10246;50.620;7.232;2023-07-02T14:41:13;25.90;1.00
20174;DHT22;10246;50.620;7.232;2023-07-02T14:43:40;25.80;1.00
20174;DHT22;10246;50.620;7.232;2023-07-02T14:46:07;25.90;1.00
20174;DHT22;10246;50.620;7.232;2023-07-02T14:48:33;25.90;1.00
20174;DHT22;10246;50.620;7.232;2023-07-02T14:51:02;26.00;1.00
20174;DHT22;10246;50.620;7.232;2023-07-02T14:53:30;26.00;1.00
20174;DHT22;10246;50.620;7.232;2023-07-02T14:55:59;26.00;1.00
20174;DHT22;10246;50.620;7.232;2023-07-02T14:58:27;25.90;1.00
20174;DHT22;10246;50.620;7.232;2023-07-02T15:00:54;25.90;1.00
20174;DHT22;10246;50.620;7.232;2023-07-02T15:03:23;25.90;1.00
20174;DHT22;10246;50.620;7.232;2023-07-02T15:05:51;25.70;1.00
20174;DHT22;10246;50.620;7.232;2023-07-02T15:08:20;25.50;1.00
20174;DHT22;10246;50.620;7.232;2023-07-02T15:10:49;25.70;1.00
20174;DHT22;10246;50.620;7.232;2023-07-02T15:13:19;25.80;1.00
20174;DHT22;10246;50.620;7.232;2023-07-02T15:15:48;25.90;1.00
20174;DHT22;10246;50.620;7.232;2023-07-02T15:18:15;25.90;1.00
20174;DHT22;10246;50.620;7.232;2023-07-02T15:20:43;26.00;1.00
20174;DHT22;10246;50.620;7.232;2023-07-02T15:23:10;26.20;1.00
20174;DHT22;10246;50.620;7.232;2023-07-02T15:25:50;26.10;1.00
20174;DHT22;10246;50.620;7.232;2023-07-02T15:28:18;25.80;1.00
20174;DHT22;10246;50.620;7.232;2023-07-02T15:30:46;25.70;1.00
20174;DHT22;10246;50.620;7.232;2023-07-02T15:33:13;25.80;1.00
20174;DHT22;10246;50.620;7.232;2023-07-02T15:35:44;26.00;1.00
20174;DHT22;10246;50.620;7.232;2023-07-02T15:38:11;26.20;1.00
20174;DHT22;10246;50.620;7.232;2023-07-02T15:40:39;26.10;1.00
20174;DHT22;10246;50.620;7.232;2023-07-02T15:43:06;26.00;1.00
20174;DHT22;10246;50.620;7.232;2023-07-02T15:45:33;25.70;1.00